Latest Weather Observations for Lake Julius

IDQ60801

Issued at 4:05 pm EST Thursday 21 August 2014 (issued every 30 minutes, with the page automatically refreshed every 10 minutes)

About weather observations | Map of weather stations | Latest weather observations for QLD | Other Formats
Station Details ID: 029181 Name: LAKE JULIUS AWS Lat: -20.12 Lon: 139.73 Height: 237.0 m
Data from the previous 72 hours. | See also: Recent months for locations in Queensland
Date/Time
EST
Temp
°C
App
Temp
°C
Dew
Point
Rel
Hum
%
Delta-T
°C
Wind Press
QNH
hPa
Press
MSL
hPa
Rain
since 9 am
mm
Dir
 
Spd
km/h
Gust
km/h
Spd
kts
Gust
kts
21/04:00pm 25.2 20.3 -7.3 11 13.2 SSE 11 17 6 9 - - 0.0
21/03:30pm 25.5 21.5 -6.0 12 13.2 S 7 15 4 8 - - 0.0
21/03:00pm 25.3 18.9 -7.2 11 13.3 S 19 24 10 13 - - 0.0
21/02:30pm 25.1 18.8 -6.3 12 13.0 S 19 28 10 15 - - 0.0
21/02:00pm 24.8 19.2 -6.5 12 12.9 S 15 22 8 12 - - 0.0
21/01:30pm 24.9 19.7 -6.4 12 12.9 SSW 13 22 7 12 - - 0.0
21/01:00pm 24.4 20.1 -4.8 14 12.4 S 9 24 5 13 - - 0.0
21/12:30pm 23.5 19.4 -6.5 13 12.2 SSW 7 19 4 10 - - 0.0
21/12:00pm 23.0 18.2 -5.9 14 11.8 SSE 11 20 6 11 - - 0.0
21/11:30am 22.9 18.2 -5.1 15 11.6 S 11 24 6 13 - - 0.0
21/11:00am 22.4 17.7 -5.5 15 11.4 S 11 20 6 11 - - 0.0
21/10:30am 21.9 17.2 -2.0 20 10.4 S 13 22 7 12 - - 0.0
21/10:00am 20.9 16.8 -0.4 24 9.5 S 11 19 6 10 - - 0.0
21/09:30am 19.4 15.7 -0.1 27 8.7 SSW 9 15 5 8 - - 0.0
21/09:00am 18.4 14.3 -0.4 28 8.2 S 11 15 6 8 - - 0.0
21/08:30am 17.1 12.9 -1.1 29 7.8 S 11 17 6 9 - - 0.0
21/08:00am 15.2 11.6 -2.2 30 7.1 SSW 7 13 4 7 - - 0.0
21/07:30am 13.6 9.9 -3.2 31 6.6 SSW 7 9 4 5 - - 0.0
21/07:00am 12.9 10.1 -3.4 32 6.3 SSW 2 9 1 5 - - 0.0
21/06:30am 13.4 9.6 -3.8 30 6.7 SSW 7 13 4 7 - - 0.0
21/06:00am 14.5 10.3 -3.8 28 7.2 SSW 9 13 5 7 - - 0.0
21/05:30am 14.7 11.1 -3.6 28 7.2 SSW 6 9 3 5 - - 0.0
21/05:00am 14.7 11.5 -3.6 28 7.2 SSW 4 7 2 4 - - 0.0
21/04:30am 14.4 10.8 -3.4 29 7.0 SSW 6 7 3 4 - - 0.0
21/04:00am 14.5 10.3 -4.2 27 7.3 SSW 9 15 5 8 - - 0.0
21/03:30am 14.6 10.4 -4.2 27 7.3 SW 9 11 5 6 - - 0.0
21/03:00am 14.7 10.9 -4.1 27 7.3 SSW 7 11 4 6 - - 0.0
21/02:30am 14.8 11.0 -4.0 27 7.4 SSW 7 9 4 5 - - 0.0
21/02:00am 15.1 11.2 -4.2 26 7.5 SSW 7 9 4 5 - - 0.0
21/01:30am 15.0 11.2 -3.8 27 7.4 SSW 7 9 4 5 - - 0.0
21/01:00am 15.6 11.7 -4.9 24 7.9 SSW 7 9 4 5 - - 0.0
21/12:30am 15.9 12.1 -4.1 25 7.9 SSW 7 9 4 5 - - 0.0
21/12:00am 16.4 12.7 -3.1 26 7.9 S 7 9 4 5 - - 0.0
 
Date/Time
EST
Temp
°C
App
Temp
°C
Dew
Point
Rel
Hum
%
Delta-T
°C
Wind Press
QNH
hPa
Press
MSL
hPa
Rain
since 9 am
mm
Dir
 
Spd
km/h
Gust
km/h
Spd
kts
Gust
kts
20/11:30pm 16.2 12.6 -1.8 29 7.5 SSW 7 9 4 5 - - 0.0
20/11:00pm 16.5 12.9 -2.0 28 7.7 SSW 7 9 4 5 - - 0.0
20/10:30pm 17.1 13.6 -1.1 29 7.8 SSW 7 7 4 4 - - 0.0
20/10:00pm 17.4 14.2 0.6 32 7.4 SSW 7 9 4 5 - - 0.0
20/09:30pm 17.3 13.8 1.3 34 7.2 SSW 9 9 5 5 - - 0.0
20/09:00pm 18.4 16.4 -0.4 28 8.2 CALM 0 0 0 0 - - 0.0
20/08:30pm 19.1 15.9 -0.3 27 8.6 S 6 7 3 4 - - 0.0
20/08:00pm 20.5 17.0 -2.5 21 9.8 S 6 11 3 6 - - 0.0
20/07:30pm 21.6 17.3 -4.5 17 10.8 SSE 9 13 5 7 - - 0.0
20/07:00pm 21.9 18.0 -4.2 17 10.9 SSE 7 9 4 5 - - 0.0
20/06:30pm 22.5 17.9 -4.5 16 11.3 S 11 15 6 8 - - 0.0
20/06:00pm 23.3 18.9 -5.7 14 11.9 S 9 15 5 8 - - 0.0
20/05:30pm 23.7 19.4 -5.3 14 12.1 S 9 17 5 9 - - 0.0
20/05:00pm 24.6 20.6 -5.6 13 12.6 SE 7 19 4 10 - - 0.0
20/04:30pm 24.5 19.7 -5.7 13 12.6 SSW 11 20 6 11 - - 0.0
20/04:00pm 24.3 19.1 -5.8 13 12.5 SSE 13 20 7 11 - - 0.0
20/03:30pm 24.3 19.8 -6.9 12 12.7 SW 9 17 5 9 - - 0.0
20/03:00pm 24.3 19.1 -5.8 13 12.5 SSE 13 30 7 16 - - 0.0
20/02:30pm 23.8 19.4 -6.2 13 12.3 ESE 9 19 5 10 - - 0.0
20/02:00pm 23.7 19.3 -6.3 13 12.3 SE 9 19 5 10 - - 0.0
20/01:30pm 23.9 18.4 -5.2 14 12.2 S 15 30 8 16 - - 0.0
20/01:00pm 23.8 19.2 -4.4 15 12.0 SE 11 24 6 13 - - 0.0
20/12:30pm 23.6 19.0 -3.7 16 11.7 S 11 19 6 10 - - 0.0
20/12:00pm 22.7 18.1 -4.4 16 11.4 S 11 20 6 11 - - 0.0
20/11:30am 21.6 16.9 -5.3 16 11.0 SSE 11 28 6 15 - - 0.0
20/11:00am 21.8 17.5 -5.1 16 11.1 SE 9 17 5 9 - - 0.0
20/10:30am 21.1 15.7 -4.9 17 10.7 E 15 22 8 12 - - 0.0
20/10:00am 20.6 16.0 -4.5 18 10.3 SE 11 22 6 12 - - 0.0
20/09:30am 18.3 12.9 -4.4 21 9.1 SSE 15 20 8 11 - - 0.0
20/09:00am 17.2 13.0 -4.1 23 8.5 S 9 15 5 8 - - 0.0
20/08:30am 16.3 11.0 -3.2 26 7.9 S 15 20 8 11 - - 0.0
20/08:00am 15.4 10.9 -3.0 28 7.4 S 11 17 6 9 - - 0.0
20/07:30am 14.4 10.0 -2.5 31 6.8 S 11 15 6 8 - - 0.0
20/07:00am 14.2 9.4 -2.7 31 6.8 SSW 13 19 7 10 - - 0.0
20/06:30am 14.2 9.0 -3.1 30 6.9 SSW 15 20 8 11 - - 0.0
20/06:00am 14.4 9.6 -2.9 30 6.9 S 13 22 7 12 - - 0.0
20/05:30am 15.1 9.5 -3.2 28 7.3 S 17 26 9 14 - - 0.0
20/05:00am 15.3 9.3 -3.1 28 7.4 S 19 30 10 16 - - 0.0
20/04:30am 15.0 10.2 -2.9 29 7.2 SSW 13 19 7 10 - - 0.0
20/04:00am 15.3 10.8 -3.1 28 7.4 S 11 20 6 11 - - 0.0
20/03:30am 15.4 10.9 -3.0 28 7.4 SSW 11 17 6 9 - - 0.0
20/03:00am 15.6 11.5 -2.8 28 7.5 S 9 17 5 9 - - 0.0
20/02:30am 16.0 12.3 -2.5 28 7.6 S 7 9 4 5 - - 0.0
20/02:00am 16.7 12.4 -1.9 28 7.8 S 11 19 6 10 - - 0.0
20/01:30am 17.2 12.5 -1.9 27 8.0 S 13 20 7 11 - - 0.0
20/01:00am 17.4 12.8 -1.3 28 8.0 S 13 19 7 10 - - 0.0
20/12:30am 17.5 13.7 -0.7 29 7.9 S 9 15 5 8 - - 0.0
20/12:00am 17.9 14.1 -0.8 28 8.1 S 9 17 5 9 - - 0.0
 
Date/Time
EST
Temp
°C
App
Temp
°C
Dew
Point
Rel
Hum
%
Delta-T
°C
Wind Press
QNH
hPa
Press
MSL
hPa
Rain
since 9 am
mm
Dir
 
Spd
km/h
Gust
km/h
Spd
kts
Gust
kts
19/11:30pm 18.5 14.7 -0.8 27 8.4 S 9 19 5 10 - - 0.0
19/11:00pm 19.1 14.8 -1.4 25 8.8 S 11 17 6 9 - - 0.0
19/10:30pm 19.1 15.5 -1.9 24 9.0 S 7 13 4 7 - - 0.0
19/10:00pm 19.7 16.2 -1.4 24 9.2 S 7 13 4 7 - - 0.0
19/09:30pm 20.0 16.6 -1.7 23 9.4 SSE 6 9 3 5 - - 0.0
19/09:00pm 20.1 16.7 -1.7 23 9.4 SE 6 13 3 7 - - 0.0
19/08:30pm 19.8 16.8 -1.9 23 9.3 NE 4 6 2 3 - - 0.0
19/08:00pm 20.9 17.6 -1.6 22 9.8 SSE 6 9 3 5 - - 0.0
19/07:30pm 21.5 18.0 -1.7 21 10.2 SSE 7 11 4 6 - - 0.0
19/07:00pm 21.8 19.1 -2.1 20 10.4 SSE 2 7 1 4 - - 0.0
19/06:30pm 22.7 19.1 -2.1 19 10.9 E 7 15 4 8 - - 0.0
19/06:00pm 23.3 19.3 -2.3 18 11.3 ESE 9 15 5 8 - - 0.0
19/05:30pm 23.8 20.2 -1.9 18 11.4 SSE 7 17 4 9 - - 0.0
19/05:00pm 23.9 18.3 -2.6 17 11.6 S 17 30 9 16 - - 0.0
19/04:30pm 24.5 19.5 -1.3 18 11.7 S 15 26 8 14 - - 0.0
19/04:00pm 24.9 21.0 -1.8 17 12.0 S 9 19 5 10 - - 0.0
19/03:30pm 24.3 18.6 -0.8 19 11.4 S 19 26 10 14 - - 0.0
19/03:00pm 23.7 18.8 -0.6 20 11.1 S 15 22 8 12 - - 0.0
19/02:30pm 24.3 20.2 -0.1 20 11.3 S 11 20 6 11 - - 0.0
19/02:00pm 22.9 18.4 -0.6 21 10.6 S 13 26 7 14 - - 0.0
19/01:30pm 22.9 17.7 0.1 22 10.5 S 17 28 9 15 - - 0.0
19/01:00pm 22.4 17.5 -0.3 22 10.3 SE 15 26 8 14 - - 0.0
19/12:30pm 23.2 19.0 1.5 24 10.2 ESE 13 26 7 14 - - 0.0
19/12:00pm 21.1 16.4 0.9 26 9.3 SSE 15 24 8 13 - - 0.0
19/11:30am 21.3 16.7 1.6 27 9.2 SE 15 19 8 10 - - 0.0
19/11:00am 20.8 16.7 2.1 29 8.8 SE 13 24 7 13 - - 0.0
19/10:30am 19.3 13.9 2.2 32 7.9 SSE 20 32 11 17 - - 0.0
19/10:00am 19.3 14.4 2.2 32 7.9 SSE 17 32 9 17 - - 0.0
19/09:30am 18.4 14.2 1.9 33 7.6 SE 13 24 7 13 - - 0.0
19/09:00am 18.2 14.5 2.5 35 7.3 SSE 11 20 6 11 - - 0.0
19/08:30am 16.7 13.8 2.7 39 6.4 S 7 13 4 7 - - 0.0
19/08:00am 15.1 12.3 3.0 44 5.5 S 7 13 4 7 - - 0.0
19/07:30am 14.1 10.9 3.3 48 4.9 SSW 9 13 5 7 - - 0.0
19/07:00am 14.1 10.9 3.3 48 4.9 SSW 9 11 5 6 - - 0.0
19/06:30am 14.2 11.1 3.4 48 4.9 SSW 9 11 5 6 - - 0.0
19/06:00am 14.4 11.2 3.2 47 5.1 SSW 9 9 5 5 - - 0.0
19/05:30am 14.5 11.7 3.3 47 5.1 SSW 7 11 4 6 - - 0.0
19/05:00am 14.6 11.8 3.4 47 5.1 SSW 7 9 4 5 - - 0.0
19/04:30am 14.8 12.0 3.3 46 5.3 S 7 9 4 5 - - 0.0
19/04:00am 15.4 11.8 3.2 44 5.6 SSW 11 13 6 7 - - 0.0
19/03:30am 15.8 12.3 3.3 43 5.8 SSW 11 15 6 8 - - 0.0
19/03:00am 16.1 12.2 3.5 43 5.9 SSW 13 15 7 8 - - 0.0
19/02:30am 16.0 12.5 3.4 43 5.8 SSW 11 15 6 8 - - 0.0
19/02:00am 16.2 13.0 3.3 42 6.0 SSW 9 11 5 6 - - 0.0
19/01:30am 16.3 13.1 3.0 41 6.1 SSW 9 13 5 7 - - 0.0
19/01:00am 16.2 13.0 3.3 42 6.0 SSW 9 11 5 6 - - 0.0
19/12:30am 15.0 12.3 5.5 53 4.6 SSW 9 11 5 6 - - 0.0
19/12:00am 14.4 12.2 5.5 55 4.3 S 6 7 3 4 - - 0.0
 
Date/Time
EST
Temp
°C
App
Temp
°C
Dew
Point
Rel
Hum
%
Delta-T
°C
Wind Press
QNH
hPa
Press
MSL
hPa
Rain
since 9 am
mm
Dir
 
Spd
km/h
Gust
km/h
Spd
kts
Gust
kts
18/11:30pm 15.3 13.2 5.8 53 4.6 SSW 6 7 3 4 - - 0.0
18/11:00pm 15.8 13.7 6.0 52 4.8 S 6 7 3 4 - - 0.0
18/10:30pm 16.4 13.9 3.8 43 5.9 SSW 6 7 3 4 - - 0.0
18/10:00pm 17.0 14.7 0.6 33 7.2 E 2 4 1 2 - - 0.0
18/09:30pm 18.1 15.5 1.2 32 7.6 ESE 4 7 2 4 - - 0.0
18/09:00pm 18.4 15.6 1.9 33 7.6 S 6 9 3 5 - - 0.0
18/08:30pm 18.9 16.5 2.3 33 7.7 SSE 4 7 2 4 - - 0.0
18/08:00pm 20.2 17.0 0.6 27 8.9 S 7 13 4 7 - - 0.0
18/07:30pm 20.8 17.7 1.1 27 9.1 SSE 7 11 4 6 - - 0.0
18/07:00pm 21.0 18.8 0.8 26 9.3 E 2 6 1 3 - - 0.0
18/06:30pm 21.8 18.7 1.5 26 9.5 ESE 7 11 4 6 - - 0.0
18/06:00pm 22.3 18.3 0.8 24 10.0 SSE 11 19 6 10 - - 0.0
18/05:30pm 23.4 20.4 0.5 22 10.6 S 6 13 3 7 - - 0.0
18/05:00pm 23.3 19.8 1.0 23 10.4 S 9 20 5 11 - - 0.0
18/04:30pm 23.4 19.4 0.5 22 10.6 S 11 19 6 10 - - 0.0

Other Formats:

Comma delimited format used in spreadsheet applications
http://www.bom.gov.au/fwo/IDQ60801/IDQ60801.94348.axf

JavaScript Object Notation format (JSON) in row-major order
http://www.bom.gov.au/fwo/IDQ60801/IDQ60801.94348.json